KGVT/GVT METAR and TAF weather

Enter ICAO airport designator
Station Type Date Time Source
KGVT METAR 2022/01/25 04:35 UTC NOAA

KGVT 250435Z AUTO 00000KT 10SM OVC005 08/08 A2992 RMK AO2 TSNO T00810079


Station Type Date Time Source
KGVT Decoded METAR 2022/01/25 04:35 UTC NOAA

Greenville / Majors, TX, United States (KGVT) 33-04N 096-04W
Jan 24, 2022 - 11:35 PM EST / 2022.01.25 0435 UTC
Wind: Calm:0
Visibility: 10 mile(s):0
Sky conditions: overcast
Temperature: 46.6 F (8.1 C)
Dew Point: 46.2 F (7.9 C)
Relative Humidity: 98%
Pressure (altimeter): 29.92 in. Hg (1013 hPa)
ob: KGVT 250435Z AUTO 00000KT 10SM OVC005 08/08 A2992 RMK AO2 TSNO T00810079
cycle: 4

Station Type Date Time Source
KGVT TAF UTC NOAA

Error!

Example: see airport list